NKS1612 KMCO-KFLL
Flight info
| Callsign | NKS1612 |
|---|---|
| Flight time | 0h 39m |
| Altitude | 23000 |
| Route | DDANY3 JIPOD CUUDA3 |
| Aircraft | A321/M-VGDW/C |
Departure
| Time | 2026-04-25 03:35 |
|---|---|
| Airport | Orlando International Airport (KMCO) |
Arrival
| Time | 2026-04-25 04:14 |
|---|---|
| Airport | Fort Lauderdale Hollywood International Airport (KFLL) |
| Time | Latitude | Longitude | Altitude | Speed | Heading |
|---|---|---|---|---|---|
| 2026-04-25 03:06 | 28.43415 | -81.31588 | 95 ft | 0 kts | 118° |
| 2026-04-25 03:21 | 28.43426 | -81.31611 | 97 ft | 4 kts | 119° |
| 2026-04-25 03:21 | 28.43439 | -81.31638 | 95 ft | 4 kts | 120° |
| 2026-04-25 03:21 | 28.43452 | -81.31662 | 94 ft | 3 kts | 131° |
| 2026-04-25 03:22 | 28.43462 | -81.31672 | 94 ft | 2 kts | 174° |
| 2026-04-25 03:22 | 28.43478 | -81.31670 | 94 ft | 1 kts | 192° |
| 2026-04-25 03:22 | 28.43461 | -81.31675 | 95 ft | 1 kts | 192° |
| 2026-04-25 03:22 | 28.43458 | -81.31675 | 95 ft | 0 kts | 192° |
| 2026-04-25 03:27 | 28.43441 | -81.31679 | 96 ft | 6 kts | 190° |
| 2026-04-25 03:27 | 28.43381 | -81.31692 | 98 ft | 12 kts | 191° |
| 2026-04-25 03:27 | 28.43299 | -81.31721 | 98 ft | 13 kts | 213° |
| 2026-04-25 03:27 | 28.43250 | -81.31803 | 101 ft | 13 kts | 276° |
| 2026-04-25 03:28 | 28.43335 | -81.31843 | 99 ft | 16 kts | 359° |
| 2026-04-25 03:28 | 28.43453 | -81.31845 | 99 ft | 18 kts | 360° |
| 2026-04-25 03:28 | 28.43581 | -81.31846 | 98 ft | 20 kts | 359° |
| 2026-04-25 03:28 | 28.43718 | -81.31847 | 100 ft | 17 kts | 359° |
| 2026-04-25 03:29 | 28.43833 | -81.31848 | 100 ft | 16 kts | 0° |
| 2026-04-25 03:29 | 28.43918 | -81.31808 | 101 ft | 13 kts | 70° |
| 2026-04-25 03:29 | 28.43923 | -81.31709 | 105 ft | 13 kts | 89° |
| 2026-04-25 03:29 | 28.43924 | -81.31594 | 107 ft | 17 kts | 89° |
| 2026-04-25 03:30 | 28.43925 | -81.31456 | 105 ft | 16 kts | 89° |
| 2026-04-25 03:30 | 28.43930 | -81.31329 | 107 ft | 15 kts | 86° |
| 2026-04-25 03:30 | 28.43936 | -81.31206 | 108 ft | 16 kts | 87° |
| 2026-04-25 03:30 | 28.43941 | -81.31076 | 108 ft | 17 kts | 88° |
| 2026-04-25 03:31 | 28.43943 | -81.30933 | 107 ft | 19 kts | 89° |
| 2026-04-25 03:31 | 28.43938 | -81.30785 | 109 ft | 18 kts | 94° |
| 2026-04-25 03:31 | 28.43928 | -81.30639 | 106 ft | 19 kts | 94° |
| 2026-04-25 03:31 | 28.43919 | -81.30490 | 106 ft | 19 kts | 94° |
| 2026-04-25 03:32 | 28.43912 | -81.30340 | 101 ft | 18 kts | 93° |
| 2026-04-25 03:32 | 28.43906 | -81.30199 | 102 ft | 18 kts | 93° |
| 2026-04-25 03:32 | 28.43900 | -81.30064 | 100 ft | 16 kts | 93° |
| 2026-04-25 03:32 | 28.43877 | -81.29945 | 98 ft | 17 kts | 115° |
| 2026-04-25 03:33 | 28.43792 | -81.29843 | 95 ft | 18 kts | 148° |
| 2026-04-25 03:33 | 28.43679 | -81.29809 | 96 ft | 16 kts | 177° |
| 2026-04-25 03:33 | 28.43579 | -81.29803 | 96 ft | 13 kts | 162° |
| 2026-04-25 03:33 | 28.43550 | -81.29717 | 98 ft | 13 kts | 90° |
| 2026-04-25 03:34 | 28.43550 | -81.29619 | 99 ft | 12 kts | 96° |
| 2026-04-25 03:34 | 28.43490 | -81.29586 | 98 ft | 11 kts | 179° |
| 2026-04-25 03:34 | 28.43290 | -81.29585 | 100 ft | 62 kts | 179° |
| 2026-04-25 03:34 | 28.42639 | -81.29578 | 96 ft | 126 kts | 179° |
| 2026-04-25 03:35 | 28.41590 | -81.29563 | 119 ft | 171 kts | 179° |
| 2026-04-25 03:35 | 28.40400 | -81.29551 | 763 ft | 169 kts | 178° |
| 2026-04-25 03:35 | 28.39231 | -81.29536 | 1465 ft | 169 kts | 177° |
| 2026-04-25 03:35 | 28.38034 | -81.29248 | 1867 ft | 186 kts | 153° |
| 2026-04-25 03:36 | 28.36897 | -81.28390 | 2062 ft | 207 kts | 144° |
| 2026-04-25 03:36 | 28.35639 | -81.27414 | 2213 ft | 232 kts | 146° |
| 2026-04-25 03:36 | 28.34326 | -81.26207 | 2572 ft | 251 kts | 136° |
| 2026-04-25 03:36 | 28.33090 | -81.24754 | 3204 ft | 259 kts | 133° |
| 2026-04-25 03:37 | 28.32059 | -81.23068 | 3866 ft | 266 kts | 112° |
| 2026-04-25 03:37 | 28.31655 | -81.21003 | 4525 ft | 272 kts | 97° |
| 2026-04-25 03:37 | 28.31419 | -81.18855 | 5203 ft | 277 kts | 96° |
| 2026-04-25 03:37 | 28.31192 | -81.16666 | 5907 ft | 280 kts | 96° |
| 2026-04-25 03:38 | 28.30967 | -81.14456 | 6616 ft | 284 kts | 96° |
| 2026-04-25 03:38 | 28.30743 | -81.12252 | 7300 ft | 286 kts | 96° |
| 2026-04-25 03:38 | 28.30511 | -81.10000 | 7992 ft | 289 kts | 96° |
| 2026-04-25 03:38 | 28.30274 | -81.07723 | 8684 ft | 292 kts | 96° |
| 2026-04-25 03:39 | 28.30028 | -81.05421 | 9387 ft | 295 kts | 96° |
| 2026-04-25 03:39 | 28.29778 | -81.03100 | 10053 ft | 298 kts | 95° |
| 2026-04-25 03:39 | 28.29519 | -81.00698 | 10333 ft | 317 kts | 95° |
| 2026-04-25 03:39 | 28.29245 | -80.98122 | 10460 ft | 340 kts | 95° |
| 2026-04-25 03:40 | 28.28952 | -80.95384 | 10638 ft | 358 kts | 96° |
| 2026-04-25 03:40 | 28.28645 | -80.92553 | 11136 ft | 365 kts | 96° |
| 2026-04-25 03:40 | 28.28332 | -80.89684 | 11720 ft | 369 kts | 95° |
| 2026-04-25 03:40 | 28.27960 | -80.86785 | 12298 ft | 374 kts | 101° |
| 2026-04-25 03:41 | 28.27167 | -80.83956 | 12891 ft | 380 kts | 111° |
| 2026-04-25 03:41 | 28.26154 | -80.81169 | 13503 ft | 384 kts | 111° |
| 2026-04-25 03:41 | 28.25136 | -80.78355 | 14079 ft | 388 kts | 110° |
| 2026-04-25 03:41 | 28.24110 | -80.75508 | 14597 ft | 391 kts | 111° |
| 2026-04-25 03:42 | 28.23076 | -80.72632 | 15123 ft | 396 kts | 111° |
| 2026-04-25 03:42 | 28.22031 | -80.69729 | 15652 ft | 400 kts | 111° |
| 2026-04-25 03:42 | 28.20978 | -80.66795 | 16180 ft | 404 kts | 110° |
| 2026-04-25 03:42 | 28.19948 | -80.63813 | 16701 ft | 408 kts | 110° |
| 2026-04-25 03:43 | 28.18958 | -80.60826 | 17214 ft | 412 kts | 109° |
| 2026-04-25 03:43 | 28.17963 | -80.57763 | 17723 ft | 416 kts | 109° |
| 2026-04-25 03:43 | 28.16964 | -80.54671 | 18240 ft | 421 kts | 109° |
| 2026-04-25 03:43 | 28.15951 | -80.51543 | 18675 ft | 424 kts | 109° |
| 2026-04-25 03:44 | 28.14921 | -80.48391 | 19152 ft | 427 kts | 109° |
| 2026-04-25 03:44 | 28.13876 | -80.45229 | 19631 ft | 430 kts | 110° |
| 2026-04-25 03:44 | 28.12814 | -80.42040 | 20113 ft | 433 kts | 110° |
| 2026-04-25 03:44 | 28.11711 | -80.38850 | 20593 ft | 436 kts | 114° |
| 2026-04-25 03:45 | 28.10193 | -80.35860 | 21040 ft | 439 kts | 126° |
| 2026-04-25 03:45 | 28.08189 | -80.33249 | 21460 ft | 441 kts | 138° |
| 2026-04-25 03:45 | 28.05768 | -80.31115 | 21888 ft | 442 kts | 149° |
| 2026-04-25 03:45 | 28.03024 | -80.29541 | 22316 ft | 442 kts | 161° |
| 2026-04-25 03:46 | 28.00120 | -80.28394 | 22729 ft | 444 kts | 163° |
| 2026-04-25 03:46 | 27.97192 | -80.27257 | 22953 ft | 445 kts | 163° |
| 2026-04-25 03:46 | 27.94261 | -80.26113 | 22994 ft | 446 kts | 163° |
| 2026-04-25 03:46 | 27.91331 | -80.24968 | 22993 ft | 446 kts | 163° |
| 2026-04-25 03:47 | 27.88398 | -80.23822 | 22993 ft | 446 kts | 163° |
| 2026-04-25 03:47 | 27.85501 | -80.22692 | 22994 ft | 446 kts | 163° |
| 2026-04-25 03:47 | 27.82567 | -80.21545 | 22997 ft | 446 kts | 163° |
| 2026-04-25 03:47 | 27.79639 | -80.20399 | 22999 ft | 446 kts | 163° |
| 2026-04-25 03:48 | 27.76707 | -80.19253 | 22999 ft | 446 kts | 163° |
| 2026-04-25 03:48 | 27.73781 | -80.18115 | 23003 ft | 446 kts | 163° |
| 2026-04-25 03:48 | 27.70847 | -80.16978 | 22999 ft | 446 kts | 163° |
| 2026-04-25 03:48 | 27.67917 | -80.15843 | 22996 ft | 445 kts | 163° |
| 2026-04-25 03:49 | 27.64986 | -80.14707 | 22992 ft | 445 kts | 163° |
| 2026-04-25 03:49 | 27.62057 | -80.13573 | 22994 ft | 445 kts | 163° |
| 2026-04-25 03:49 | 27.59133 | -80.12416 | 22991 ft | 445 kts | 162° |
| 2026-04-25 03:49 | 27.56220 | -80.11223 | 22989 ft | 445 kts | 162° |
| 2026-04-25 03:50 | 27.53307 | -80.10007 | 22988 ft | 446 kts | 162° |
| 2026-04-25 03:50 | 27.50406 | -80.08788 | 22984 ft | 446 kts | 162° |
| 2026-04-25 03:50 | 27.47497 | -80.07567 | 22984 ft | 446 kts | 162° |
| 2026-04-25 03:50 | 27.44586 | -80.06354 | 22982 ft | 446 kts | 162° |
| 2026-04-25 03:51 | 27.41680 | -80.05152 | 22976 ft | 446 kts | 162° |
| 2026-04-25 03:51 | 27.38763 | -80.03956 | 22974 ft | 445 kts | 163° |
| 2026-04-25 03:51 | 27.35823 | -80.02866 | 22976 ft | 445 kts | 166° |
| 2026-04-25 03:51 | 27.32847 | -80.01908 | 22973 ft | 444 kts | 168° |
| 2026-04-25 03:52 | 27.29859 | -80.01039 | 22978 ft | 444 kts | 168° |
| 2026-04-25 03:52 | 27.26896 | -80.00209 | 22975 ft | 444 kts | 169° |
| 2026-04-25 03:52 | 27.23906 | -79.99338 | 22973 ft | 444 kts | 167° |
| 2026-04-25 03:52 | 27.20936 | -79.98362 | 22976 ft | 445 kts | 165° |
| 2026-04-25 03:53 | 27.17993 | -79.97304 | 22901 ft | 442 kts | 164° |
| 2026-04-25 03:53 | 27.15123 | -79.96221 | 22713 ft | 429 kts | 164° |
| 2026-04-25 03:53 | 27.12332 | -79.95153 | 22464 ft | 420 kts | 164° |
| 2026-04-25 03:53 | 27.09576 | -79.94113 | 22046 ft | 416 kts | 164° |
| 2026-04-25 03:54 | 27.06836 | -79.93102 | 21607 ft | 413 kts | 165° |
| 2026-04-25 03:54 | 27.04123 | -79.92074 | 21157 ft | 410 kts | 163° |
| 2026-04-25 03:54 | 27.01441 | -79.91008 | 20715 ft | 408 kts | 163° |
| 2026-04-25 03:54 | 26.98781 | -79.89923 | 20280 ft | 405 kts | 162° |
| 2026-04-25 03:55 | 26.96146 | -79.88835 | 19834 ft | 401 kts | 162° |
| 2026-04-25 03:55 | 26.93560 | -79.87768 | 19007 ft | 393 kts | 162° |
| 2026-04-25 03:55 | 26.91008 | -79.86725 | 18461 ft | 387 kts | 162° |
| 2026-04-25 03:55 | 26.88483 | -79.85700 | 18086 ft | 382 kts | 163° |
| 2026-04-25 03:56 | 26.86014 | -79.84704 | 17739 ft | 375 kts | 163° |
| 2026-04-25 03:56 | 26.83562 | -79.83723 | 17267 ft | 373 kts | 163° |
| 2026-04-25 03:56 | 26.81126 | -79.82751 | 16817 ft | 370 kts | 163° |
| 2026-04-25 03:56 | 26.78712 | -79.81785 | 16371 ft | 367 kts | 163° |
| 2026-04-25 03:57 | 26.76321 | -79.80824 | 15942 ft | 364 kts | 163° |
| 2026-04-25 03:57 | 26.73947 | -79.79869 | 15514 ft | 361 kts | 163° |
| 2026-04-25 03:57 | 26.71546 | -79.79156 | 15094 ft | 354 kts | 175° |
| 2026-04-25 03:57 | 26.69143 | -79.79072 | 14678 ft | 347 kts | 188° |
| 2026-04-25 03:58 | 26.66797 | -79.79597 | 14259 ft | 340 kts | 201° |
| 2026-04-25 03:58 | 26.64612 | -79.80500 | 14039 ft | 330 kts | 203° |
| 2026-04-25 03:58 | 26.62469 | -79.81383 | 13715 ft | 326 kts | 203° |
| 2026-04-25 03:58 | 26.60344 | -79.82250 | 13288 ft | 323 kts | 202° |
| 2026-04-25 03:59 | 26.58254 | -79.83096 | 12520 ft | 318 kts | 202° |
| 2026-04-25 03:59 | 26.56179 | -79.83935 | 11713 ft | 315 kts | 202° |
| 2026-04-25 03:59 | 26.54178 | -79.84771 | 11291 ft | 299 kts | 204° |
| 2026-04-25 03:59 | 26.52273 | -79.85640 | 10907 ft | 295 kts | 205° |
| 2026-04-25 04:00 | 26.50378 | -79.86545 | 10507 ft | 296 kts | 205° |
| 2026-04-25 04:00 | 26.48484 | -79.87458 | 10120 ft | 297 kts | 205° |
| 2026-04-25 04:00 | 26.46607 | -79.88361 | 9720 ft | 298 kts | 205° |
| 2026-04-25 04:00 | 26.44705 | -79.89271 | 9308 ft | 297 kts | 205° |
| 2026-04-25 04:01 | 26.42801 | -79.90173 | 8919 ft | 297 kts | 205° |
| 2026-04-25 04:01 | 26.40900 | -79.91068 | 8532 ft | 296 kts | 204° |
| 2026-04-25 04:01 | 26.38999 | -79.91962 | 8140 ft | 296 kts | 205° |
| 2026-04-25 04:01 | 26.37196 | -79.93010 | 7916 ft | 288 kts | 212° |
| 2026-04-25 04:02 | 26.35460 | -79.94132 | 7858 ft | 289 kts | 212° |
| 2026-04-25 04:02 | 26.33713 | -79.95253 | 7778 ft | 289 kts | 211° |
| 2026-04-25 04:02 | 26.31970 | -79.96370 | 7685 ft | 289 kts | 211° |
| 2026-04-25 04:02 | 26.30230 | -79.97483 | 7601 ft | 288 kts | 211° |
| 2026-04-25 04:03 | 26.28490 | -79.98597 | 7511 ft | 288 kts | 211° |
| 2026-04-25 04:03 | 26.26754 | -79.99706 | 7419 ft | 288 kts | 211° |
| 2026-04-25 04:03 | 26.25015 | -80.00818 | 7337 ft | 288 kts | 211° |
| 2026-04-25 04:03 | 26.23283 | -80.01928 | 7246 ft | 287 kts | 211° |
| 2026-04-25 04:04 | 26.22139 | -80.02663 | 7187 ft | 287 kts | 211° |
| 2026-04-25 04:04 | 26.20413 | -80.03776 | 7104 ft | 286 kts | 212° |
| 2026-04-25 04:04 | 26.18856 | -80.05140 | 7003 ft | 284 kts | 228° |
| 2026-04-25 04:04 | 26.17687 | -80.06899 | 6925 ft | 282 kts | 243° |
| 2026-04-25 04:05 | 26.16952 | -80.08914 | 6827 ft | 281 kts | 253° |
| 2026-04-25 04:05 | 26.16338 | -80.10978 | 6733 ft | 281 kts | 253° |
| 2026-04-25 04:05 | 26.15718 | -80.13041 | 6647 ft | 281 kts | 253° |
| 2026-04-25 04:05 | 26.15160 | -80.15122 | 6492 ft | 279 kts | 261° |
| 2026-04-25 04:06 | 26.15021 | -80.17230 | 6326 ft | 269 kts | 272° |
| 2026-04-25 04:06 | 26.15038 | -80.19285 | 6114 ft | 262 kts | 271° |
| 2026-04-25 04:06 | 26.15050 | -80.21286 | 5911 ft | 256 kts | 271° |
| 2026-04-25 04:06 | 26.15060 | -80.23258 | 5605 ft | 254 kts | 271° |
| 2026-04-25 04:07 | 26.15068 | -80.25221 | 5305 ft | 253 kts | 271° |
| 2026-04-25 04:07 | 26.15084 | -80.27151 | 4989 ft | 252 kts | 271° |
| 2026-04-25 04:07 | 26.15104 | -80.29125 | 4656 ft | 252 kts | 271° |
| 2026-04-25 04:07 | 26.15111 | -80.31045 | 4325 ft | 251 kts | 270° |
| 2026-04-25 04:08 | 26.15102 | -80.32982 | 3988 ft | 250 kts | 269° |
| 2026-04-25 04:08 | 26.15076 | -80.34920 | 3663 ft | 250 kts | 267° |
| 2026-04-25 04:08 | 26.14620 | -80.36724 | 3489 ft | 237 kts | 236° |
| 2026-04-25 04:08 | 26.13477 | -80.37939 | 3297 ft | 224 kts | 206° |
| 2026-04-25 04:09 | 26.12002 | -80.38351 | 3038 ft | 218 kts | 176° |
| 2026-04-25 04:09 | 26.10522 | -80.38002 | 3007 ft | 218 kts | 156° |
| 2026-04-25 04:09 | 26.09318 | -80.37194 | 3006 ft | 218 kts | 138° |
| 2026-04-25 04:09 | 26.08351 | -80.35904 | 3004 ft | 215 kts | 119° |
| 2026-04-25 04:10 | 26.07854 | -80.34409 | 3003 ft | 203 kts | 101° |
| 2026-04-25 04:10 | 26.07771 | -80.32872 | 2816 ft | 194 kts | 91° |
| 2026-04-25 04:10 | 26.07767 | -80.31454 | 2599 ft | 173 kts | 91° |
| 2026-04-25 04:10 | 26.07762 | -80.30197 | 2380 ft | 155 kts | 91° |
| 2026-04-25 04:11 | 26.07751 | -80.27890 | 1989 ft | 146 kts | 91° |
| 2026-04-25 04:11 | 26.07746 | -80.26775 | 1807 ft | 143 kts | 92° |
| 2026-04-25 04:11 | 26.07741 | -80.25669 | 1616 ft | 143 kts | 92° |
| 2026-04-25 04:12 | 26.07735 | -80.24583 | 1431 ft | 142 kts | 92° |
| 2026-04-25 04:12 | 26.07730 | -80.23486 | 1245 ft | 142 kts | 92° |
| 2026-04-25 04:12 | 26.07724 | -80.22392 | 1059 ft | 141 kts | 92° |
| 2026-04-25 04:12 | 26.07719 | -80.21301 | 879 ft | 141 kts | 90° |
| 2026-04-25 04:13 | 26.07713 | -80.20211 | 695 ft | 142 kts | 91° |
| 2026-04-25 04:13 | 26.07707 | -80.19112 | 520 ft | 142 kts | 90° |
| 2026-04-25 04:13 | 26.07703 | -80.18011 | 310 ft | 142 kts | 91° |
| 2026-04-25 04:13 | 26.07694 | -80.16914 | 134 ft | 142 kts | 91° |
| 2026-04-25 04:14 | 26.07691 | -80.15837 | 21 ft | 129 kts | 90° |
| 2026-04-25 04:14 | 26.07686 | -80.15009 | 17 ft | 83 kts | 90° |
| 2026-04-25 04:14 | 26.07683 | -80.14589 | 19 ft | 34 kts | 91° |
| 2026-04-25 04:14 | 26.07629 | -80.14411 | 20 ft | 18 kts | 132° |
| 2026-04-25 04:15 | 26.07560 | -80.14464 | 17 ft | 13 kts | 263° |
| 2026-04-25 04:15 | 26.07559 | -80.14572 | 17 ft | 15 kts | 270° |
| 2026-04-25 04:15 | 26.07560 | -80.14687 | 17 ft | 15 kts | 270° |
| 2026-04-25 04:15 | 26.07508 | -80.14755 | 16 ft | 13 kts | 208° |
| 2026-04-25 04:16 | 26.07436 | -80.14823 | 16 ft | 14 kts | 225° |
| 2026-04-25 04:16 | 26.07346 | -80.14853 | 16 ft | 14 kts | 180° |
| 2026-04-25 04:16 | 26.07250 | -80.14853 | 16 ft | 12 kts | 180° |
| 2026-04-25 04:16 | 26.07161 | -80.14854 | 16 ft | 13 kts | 180° |
| 2026-04-25 04:17 | 26.07073 | -80.14840 | 16 ft | 11 kts | 148° |
| 2026-04-25 04:17 | 26.07026 | -80.14792 | 17 ft | 7 kts | 126° |
| 2026-04-25 04:17 | 26.07038 | -80.14743 | 16 ft | 8 kts | 56° |
| 2026-04-25 04:17 | 26.07057 | -80.14712 | 16 ft | 3 kts | 56° |
| 2026-04-25 04:18 | 26.07058 | -80.14709 | 16 ft | 0 kts | 57° |